Time;durP1;ratioP1;P1;durP2;ratioP2;P2;SDS_P1;SDS_P2;PMS_P1;PMS_P2;Temp;Humidity;BMP_temperature;BMP_pressure;BME280_temperature;BME280_humidity;BME280_pressure;Samples;Min_cycle;Max_cycle;Signal;HPM_P1;HPM_P2
2021/06/27 00:00:13;;;;;;;5.60;3.30;;;19.70;99.90;;;;;;4949760;28;20451;-81
2021/06/27 00:02:38;;;;;;;5.00;3.20;;;19.70;99.90;;;;;;4950092;29;20475;-82
2021/06/27 00:05:06;;;;;;;5.23;3.30;;;19.60;99.90;;;;;;4951396;29;20443;-82
2021/06/27 00:07:31;;;;;;;4.90;3.13;;;19.60;99.90;;;;;;4919791;29;20195;-83
2021/06/27 00:09:57;;;;;;;3.80;3.23;;;19.60;99.90;;;;;;4968825;29;20420;-83
2021/06/27 00:12:22;;;;;;;6.30;3.63;;;19.60;99.90;;;;;;4919980;29;20219;-82
2021/06/27 00:14:48;;;;;;;3.37;2.63;;;19.60;99.90;;;;;;4951302;29;20599;-82
2021/06/27 00:17:14;;;;;;;4.93;3.10;;;19.60;99.90;;;;;;4935264;29;20210;-82
2021/06/27 00:19:39;;;;;;;4.10;3.70;;;19.50;99.90;;;;;;4949371;29;20191;-82
2021/06/27 00:22:08;;;;;;;4.33;3.37;;;19.60;99.90;;;;;;4948994;29;20208;-81
2021/06/27 00:24:34;;;;;;;2.63;2.43;;;19.50;99.90;;;;;;4950393;29;20199;-82
2021/06/27 00:26:59;;;;;;;4.97;3.40;;;19.60;99.90;;;;;;4932793;29;20503;-82
2021/06/27 00:29:25;;;;;;;3.80;3.23;;;19.50;99.90;;;;;;4966727;29;20173;-82
2021/06/27 00:31:51;;;;;;;3.57;3.20;;;19.40;99.90;;;;;;4932886;29;20187;-82
2021/06/27 00:34:16;;;;;;;3.57;2.93;;;19.40;99.90;;;;;;4950244;29;20207;-82
2021/06/27 00:36:42;;;;;;;7.87;3.27;;;19.40;99.90;;;;;;4949371;29;20180;-82
2021/06/27 00:39:07;;;;;;;3.10;2.77;;;19.40;99.90;;;;;;4948068;29;20191;-81
2021/06/27 00:41:33;;;;;;;6.00;2.90;;;19.40;99.90;;;;;;4933078;29;20183;-80
2021/06/27 00:43:59;;;;;;;3.97;3.00;;;19.40;99.90;;;;;;4947638;29;20266;-81
2021/06/27 00:46:25;;;;;;;3.93;3.03;;;19.30;99.90;;;;;;4948285;29;20232;-83
2021/06/27 00:48:53;;;;;;;3.63;3.03;;;19.30;99.90;;;;;;4916922;29;20416;-82
2021/06/27 00:51:21;;;;;;;3.53;2.43;;;19.30;99.90;;;;;;4933381;29;20176;-81
2021/06/27 00:53:49;;;;;;;3.30;2.80;;;19.30;99.90;;;;;;4947947;29;20443;-81
2021/06/27 00:56:16;;;;;;;4.57;2.90;;;19.20;99.90;;;;;;4950539;29;20419;-82
2021/06/27 00:58:44;;;;;;;4.37;3.23;;;19.30;99.90;;;;;;4952633;29;20423;-82
2021/06/27 01:01:09;;;;;;;4.13;2.83;;;19.30;99.90;;;;;;4970547;29;20433;-83
2021/06/27 01:03:36;;;;;;;3.30;2.53;;;19.20;99.90;;;;;;4952460;29;20467;-82
2021/06/27 01:06:02;;;;;;;2.70;2.50;;;19.20;99.90;;;;;;4952996;29;20200;-81
2021/06/27 01:08:27;;;;;;;2.80;2.60;;;19.10;99.90;;;;;;4969782;29;20444;-82
2021/06/27 01:10:54;;;;;;;3.20;2.90;;;19.10;99.90;;;;;;4953351;29;20435;-83
2021/06/27 01:13:22;;;;;;;3.90;3.00;;;19.00;99.90;;;;;;4936091;29;20223;-81
2021/06/27 01:15:52;;;;;;;3.33;2.80;;;19.00;99.90;;;;;;4952150;29;20420;-82
2021/06/27 01:18:18;;;;;;;3.00;2.70;;;18.90;99.90;;;;;;4951151;29;20451;-81
2021/06/27 01:20:44;;;;;;;4.80;3.10;;;18.80;99.90;;;;;;4952167;29;20423;-81
2021/06/27 01:23:15;;;;;;;3.40;3.10;;;18.90;99.90;;;;;;4952925;29;20474;-83
2021/06/27 01:25:44;;;;;;;3.50;2.63;;;18.90;99.90;;;;;;4952496;29;20543;-81
2021/06/27 01:28:11;;;;;;;4.17;2.90;;;19.00;99.90;;;;;;4921472;29;20423;-82
2021/06/27 01:30:39;;;;;;;4.47;2.80;;;19.00;99.90;;;;;;4935937;29;20434;-83
2021/06/27 01:33:09;;;;;;;3.63;3.10;;;19.10;99.90;;;;;;4970079;29;20449;-82
2021/06/27 01:35:35;;;;;;;3.83;3.43;;;19.00;99.90;;;;;;4953201;29;20514;-82
2021/06/27 01:38:01;;;;;;;3.87;3.10;;;18.90;99.90;;;;;;4938591;29;20423;-82
2021/06/27 01:40:29;;;;;;;3.77;3.30;;;18.80;99.90;;;;;;4938800;29;20514;-83
2021/06/27 01:43:10;;;;;;;3.50;3.20;;;18.70;99.90;;;;;;4938316;29;20477;-83
2021/06/27 01:45:39;;;;;;;4.60;3.60;;;18.70;99.90;;;;;;4954115;29;20419;-82
2021/06/27 01:48:07;;;;;;;4.47;3.07;;;18.70;99.90;;;;;;4970447;29;20413;-82
2021/06/27 01:50:34;;;;;;;10.00;3.37;;;18.70;99.90;;;;;;4937363;29;20484;-81
2021/06/27 01:53:00;;;;;;;2.80;2.50;;;18.80;99.90;;;;;;4953165;29;20439;-82
2021/06/27 01:55:26;;;;;;;5.90;3.27;;;18.70;99.90;;;;;;4937847;29;20427;-83
2021/06/27 01:57:52;;;;;;;4.63;3.30;;;18.70;99.90;;;;;;4953781;29;20458;-82
2021/06/27 02:00:19;;;;;;;3.23;2.80;;;18.80;99.90;;;;;;4953311;29;20423;-82
2021/06/27 02:02:45;;;;;;;4.60;3.30;;;18.70;99.90;;;;;;4935350;29;20475;-81
2021/06/27 02:05:12;;;;;;;7.50;3.60;;;18.70;99.90;;;;;;4952970;29;20434;-82
2021/06/27 02:07:39;;;;;;;5.27;3.70;;;18.80;99.90;;;;;;4936735;29;20587;-82
2021/06/27 02:10:11;;;;;;;4.50;2.87;;;18.90;99.90;;;;;;4936016;29;20471;-82
2021/06/27 02:12:37;;;;;;;5.30;3.00;;;18.70;99.90;;;;;;4968405;28;20985;-81
2021/06/27 02:15:05;;;;;;;5.20;3.10;;;18.80;99.90;;;;;;4968804;29;20420;-83
2021/06/27 02:17:31;;;;;;;5.10;3.80;;;18.80;99.90;;;;;;4935813;29;20561;-82
2021/06/27 02:19:57;;;;;;;3.60;3.00;;;18.80;99.90;;;;;;4968496;29;20421;-83
2021/06/27 02:22:23;;;;;;;5.83;3.20;;;18.80;99.90;;;;;;4951273;29;20219;-82
2021/06/27 02:24:49;;;;;;;6.63;3.30;;;18.80;99.90;;;;;;4951554;29;20446;-82
2021/06/27 02:27:14;;;;;;;3.50;3.00;;;18.80;99.90;;;;;;4951851;29;20514;-82
2021/06/27 02:29:40;;;;;;;3.63;2.93;;;18.80;99.90;;;;;;4951066;29;20522;-81
2021/06/27 02:32:06;;;;;;;3.87;2.90;;;18.90;99.90;;;;;;4936670;29;20196;-83
2021/06/27 02:34:32;;;;;;;6.03;3.30;;;18.90;99.90;;;;;;4936619;29;20430;-81
2021/06/27 02:36:58;;;;;;;5.20;3.10;;;18.90;99.90;;;;;;4952879;29;20447;-81
2021/06/27 02:39:25;;;;;;;3.67;3.30;;;19.00;99.90;;;;;;4969825;29;20172;-81
2021/06/27 02:41:50;;;;;;;3.40;3.10;;;19.00;99.90;;;;;;4968864;28;20416;-81
2021/06/27 02:44:16;;;;;;;3.80;2.90;;;19.10;99.90;;;;;;4968769;29;20445;-82
2021/06/27 02:46:41;;;;;;;6.97;3.87;;;19.10;99.90;;;;;;4936834;29;20640;-82
2021/06/27 02:49:07;;;;;;;3.50;2.83;;;19.00;99.90;;;;;;4936288;29;20262;-81
2021/06/27 02:51:33;;;;;;;6.40;3.20;;;18.90;99.90;;;;;;4950712;29;20242;-81
2021/06/27 02:53:59;;;;;;;3.20;2.80;;;18.80;99.90;;;;;;4969006;29;20278;-82
2021/06/27 02:56:26;;;;;;;6.00;3.37;;;18.80;99.90;;;;;;4950934;29;20839;-81
2021/06/27 02:58:51;;;;;;;3.10;2.70;;;18.80;99.90;;;;;;4951281;29;20432;-81
2021/06/27 03:01:18;;;;;;;3.80;3.07;;;18.80;99.90;;;;;;4968591;29;20438;-82
2021/06/27 03:03:45;;;;;;;5.90;3.20;;;19.00;99.90;;;;;;4952130;29;20220;-82
2021/06/27 03:06:12;;;;;;;4.87;3.50;;;19.10;99.90;;;;;;4968787;29;20440;-82
2021/06/27 03:08:39;;;;;;;3.83;3.10;;;19.10;99.90;;;;;;4968566;29;20492;-83
2021/06/27 03:11:05;;;;;;;3.50;3.13;;;19.20;99.90;;;;;;4950872;29;20416;-83
2021/06/27 03:13:36;;;;;;;3.50;2.80;;;19.00;99.90;;;;;;4951044;29;20440;-81
2021/06/27 03:16:02;;;;;;;4.10;3.40;;;18.90;99.90;;;;;;4968729;29;20511;-82
2021/06/27 03:18:27;;;;;;;3.70;3.10;;;19.00;99.90;;;;;;4968295;28;20439;-82
2021/06/27 03:20:53;;;;;;;4.00;2.90;;;19.10;99.90;;;;;;4950793;29;20431;-80
2021/06/27 03:23:21;;;;;;;4.33;2.97;;;18.90;99.90;;;;;;4964069;29;20684;-82
2021/06/27 03:25:47;;;;;;;3.50;2.53;;;19.00;99.90;;;;;;4947570;29;20190;-80
2021/06/27 03:28:12;;;;;;;3.60;3.20;;;19.10;99.90;;;;;;4946019;29;20443;-80
2021/06/27 03:30:38;;;;;;;3.50;3.00;;;19.00;99.90;;;;;;4930037;29;20187;-82
2021/06/27 03:33:05;;;;;;;4.40;3.30;;;19.00;99.90;;;;;;4962667;29;20455;-80
2021/06/27 03:35:31;;;;;;;4.90;3.83;;;18.80;99.90;;;;;;4962369;29;20188;-80
2021/06/27 03:40:42;;;;;;;3.97;3.40;;;18.70;99.90;;;;;;4947150;29;20270;-81
2021/06/27 03:43:08;;;;;;;3.90;3.50;;;18.80;99.90;;;;;;4960897;29;20471;-81
2021/06/27 03:45:34;;;;;;;4.23;3.77;;;18.70;99.90;;;;;;4944412;29;20497;-81
2021/06/27 03:47:59;;;;;;;3.40;3.10;;;18.70;99.90;;;;;;4944804;29;20267;-82
2021/06/27 03:50:25;;;;;;;3.80;3.20;;;18.60;99.90;;;;;;4945595;29;20471;-81
2021/06/27 03:52:51;;;;;;;4.87;3.90;;;18.60;99.90;;;;;;4962912;29;20200;-81
2021/06/27 03:55:19;;;;;;;3.97;3.50;;;18.70;99.90;;;;;;4945500;29;20371;-81
2021/06/27 03:57:45;;;;;;;5.43;3.40;;;18.80;99.90;;;;;;4945862;29;20517;-81
2021/06/27 04:00:11;;;;;;;5.73;3.60;;;18.70;99.90;;;;;;4963467;29;20423;-82
2021/06/27 04:02:37;;;;;;;4.50;4.10;;;18.70;99.90;;;;;;4945209;29;20545;-81
2021/06/27 04:05:04;;;;;;;3.47;3.17;;;18.60;99.90;;;;;;4962165;29;20419;-81
2021/06/27 04:07:30;;;;;;;4.60;3.57;;;18.60;99.90;;;;;;4961803;29;20412;-80
2021/06/27 04:09:56;;;;;;;5.03;3.73;;;18.60;99.90;;;;;;4945504;29;20437;-80
2021/06/27 04:12:23;;;;;;;3.50;3.00;;;18.70;99.90;;;;;;4946992;29;21046;-81
2021/06/27 04:14:50;;;;;;;3.40;3.10;;;18.80;99.90;;;;;;4946205;29;20202;-81
2021/06/27 04:17:18;;;;;;;4.30;3.10;;;18.90;99.90;;;;;;4962886;29;20443;-81
2021/06/27 04:19:44;;;;;;;4.20;3.33;;;18.90;99.90;;;;;;4961454;29;20423;-81
2021/06/27 04:22:09;;;;;;;6.10;3.10;;;18.80;99.90;;;;;;4961582;29;20463;-82
2021/06/27 04:24:35;;;;;;;5.70;3.87;;;19.00;99.90;;;;;;4944660;29;20915;-81
2021/06/27 04:27:01;;;;;;;4.00;3.47;;;19.10;99.90;;;;;;4961757;29;20175;-81
2021/06/27 04:29:26;;;;;;;4.77;3.67;;;18.90;99.90;;;;;;4961883;28;20211;-81
2021/06/27 04:31:52;;;;;;;7.37;4.30;;;18.90;99.90;;;;;;4945888;29;20275;-79
2021/06/27 04:34:20;;;;;;;3.13;2.63;;;19.00;99.90;;;;;;4966541;29;20259;-81
2021/06/27 04:36:45;;;;;;;3.07;2.70;;;19.10;99.90;;;;;;4966630;29;20255;-81
2021/06/27 04:39:14;;;;;;;4.20;3.70;;;19.10;99.90;;;;;;4964941;29;20458;-80
2021/06/27 04:41:39;;;;;;;5.20;3.30;;;19.20;99.90;;;;;;4963469;29;20172;-80
2021/06/27 04:44:05;;;;;;;4.80;3.37;;;19.30;99.90;;;;;;4963429;29;20482;-80
2021/06/27 04:46:31;;;;;;;3.43;3.13;;;19.30;99.90;;;;;;4962283;29;20260;-80
2021/06/27 04:48:57;;;;;;;5.00;3.17;;;19.10;99.90;;;;;;4961704;29;20181;-81
2021/06/27 04:51:23;;;;;;;4.37;3.50;;;19.10;99.90;;;;;;4960953;29;20422;-82
2021/06/27 04:53:48;;;;;;;4.63;3.10;;;19.20;99.90;;;;;;4944000;29;20442;-83
2021/06/27 04:56:14;;;;;;;3.30;2.97;;;19.30;99.90;;;;;;4942725;29;20667;-81
2021/06/27 04:58:39;;;;;;;3.60;3.10;;;19.40;99.90;;;;;;4962313;29;20267;-80
2021/06/27 05:01:05;;;;;;;4.00;2.97;;;19.40;99.90;;;;;;4948101;29;20193;-82
2021/06/27 05:03:30;;;;;;;3.53;2.93;;;19.40;99.90;;;;;;4931112;29;20218;-81
2021/06/27 05:05:56;;;;;;;4.30;3.47;;;19.40;99.90;;;;;;4964147;29;20208;-79
2021/06/27 05:08:21;;;;;;;2.63;2.33;;;19.70;99.90;;;;;;4964296;29;20189;-80
2021/06/27 05:10:47;;;;;;;3.70;3.03;;;19.80;99.90;;;;;;4952374;29;20177;-81
2021/06/27 05:13:15;;;;;;;9.30;3.10;;;20.10;99.90;;;;;;4968256;29;20265;-82
2021/06/27 05:15:41;;;;;;;3.30;3.00;;;20.30;99.90;;;;;;4968777;29;20201;-81
2021/06/27 05:18:06;;;;;;;3.40;2.77;;;20.60;99.90;;;;;;4951882;29;20453;-81
2021/06/27 05:20:32;;;;;;;2.53;2.33;;;20.70;99.90;;;;;;4952205;29;20175;-82
2021/06/27 05:22:57;;;;;;;3.70;3.07;;;20.80;99.90;;;;;;4952169;29;20246;-81
2021/06/27 05:25:23;;;;;;;9.50;3.00;;;20.70;99.90;;;;;;4952100;29;20182;-82
2021/06/27 05:27:48;;;;;;;3.23;2.93;;;20.90;99.90;;;;;;4936205;29;20179;-81
2021/06/27 05:30:15;;;;;;;2.50;2.30;;;20.90;99.90;;;;;;4934208;29;20186;-81
2021/06/27 05:32:40;;;;;;;7.03;3.20;;;21.30;99.90;;;;;;4950682;29;20211;-81
2021/06/27 05:35:06;;;;;;;4.43;3.17;;;21.40;99.90;;;;;;4919831;29;20555;-82
2021/06/27 05:37:32;;;;;;;4.70;3.17;;;21.70;99.90;;;;;;4950560;29;20202;-81
2021/06/27 05:39:58;;;;;;;4.27;3.00;;;21.60;99.90;;;;;;4951300;29;20423;-81
2021/06/27 05:42:24;;;;;;;3.03;2.43;;;21.60;99.90;;;;;;4951819;29;20227;-82
2021/06/27 05:44:49;;;;;;;3.80;3.00;;;22.00;99.90;;;;;;4968666;29;20476;-82
2021/06/27 05:47:15;;;;;;;3.73;2.93;;;22.20;99.90;;;;;;4933349;29;20183;-81
2021/06/27 05:49:41;;;;;;;3.77;2.63;;;22.20;99.90;;;;;;4942537;29;20180;-80
2021/06/27 05:52:07;;;;;;;2.67;2.47;;;22.50;99.90;;;;;;4935660;29;20192;-81
2021/06/27 05:54:32;;;;;;;3.07;2.60;;;22.60;99.90;;;;;;4935923;29;20188;-81
2021/06/27 05:56:58;;;;;;;4.80;3.10;;;22.80;99.90;;;;;;4934465;29;20990;-81
2021/06/27 05:59:23;;;;;;;3.67;3.00;;;23.00;99.90;;;;;;4968434;29;20184;-81
2021/06/27 06:01:49;;;;;;;4.50;2.47;;;23.40;99.90;;;;;;4951519;29;20195;-82
2021/06/27 06:04:14;;;;;;;3.87;2.87;;;23.40;99.90;;;;;;4935590;29;20204;-83
2021/06/27 06:06:40;;;;;;;3.40;2.63;;;23.60;99.90;;;;;;4951840;29;20171;-81
2021/06/27 06:09:05;;;;;;;5.50;3.27;;;22.80;99.90;;;;;;4967857;29;20168;-81
2021/06/27 06:11:31;;;;;;;3.20;2.90;;;22.80;99.90;;;;;;4966486;29;20181;-82
2021/06/27 06:13:56;;;;;;;3.20;2.53;;;23.00;99.90;;;;;;4949095;29;20200;-81
2021/06/27 06:16:22;;;;;;;3.60;2.60;;;23.10;99.90;;;;;;4947912;29;20196;-81
2021/06/27 06:18:48;;;;;;;2.87;2.37;;;22.90;99.90;;;;;;4963701;29;20191;-82
2021/06/27 06:21:17;;;;;;;2.90;2.53;;;22.70;99.90;;;;;;4930220;29;20188;-80
2021/06/27 06:23:43;;;;;;;2.90;2.60;;;22.70;99.90;;;;;;4931423;29;20228;-81
2021/06/27 06:26:10;;;;;;;3.50;2.97;;;23.10;99.90;;;;;;4931628;29;20487;-80
2021/06/27 06:28:39;;;;;;;4.23;2.80;;;22.90;99.90;;;;;;4948053;29;20420;-81
2021/06/27 06:31:04;;;;;;;2.73;2.33;;;22.70;99.90;;;;;;4948382;29;20422;-80
2021/06/27 06:33:30;;;;;;;3.80;2.60;;;22.40;99.90;;;;;;4966689;29;20503;-80
2021/06/27 06:35:55;;;;;;;2.57;2.20;;;22.50;99.90;;;;;;4949472;29;20524;-81
2021/06/27 06:38:21;;;;;;;3.10;2.80;;;22.90;99.90;;;;;;4934130;29;20695;-80
2021/06/27 06:40:47;;;;;;;4.03;2.63;;;22.60;99.90;;;;;;4933100;29;20242;-81
2021/06/27 06:43:12;;;;;;;3.33;3.07;;;22.60;99.90;;;;;;4965268;29;20250;-83
2021/06/27 06:45:38;;;;;;;3.40;2.53;;;22.80;99.90;;;;;;4948405;29;20297;-82
2021/06/27 06:48:04;;;;;;;3.23;2.90;;;22.90;99.90;;;;;;4947596;29;20183;-82
2021/06/27 06:50:30;;;;;;;3.70;2.60;;;23.40;99.90;;;;;;4965972;28;20180;-82
2021/06/27 06:52:55;;;;;;;3.00;2.57;;;24.00;99.90;;;;;;4931517;28;20514;-83
2021/06/27 06:55:21;;;;;;;3.03;2.10;;;24.10;99.00;;;;;;4947620;29;20180;-81
2021/06/27 06:57:48;;;;;;;2.80;2.50;;;24.00;97.80;;;;;;4947440;29;20176;-80
2021/06/27 07:00:14;;;;;;;2.47;2.27;;;23.70;98.10;;;;;;4946974;29;20428;-81
2021/06/27 07:02:40;;;;;;;3.47;2.77;;;23.30;99.20;;;;;;4947235;29;20467;-82
2021/06/27 07:05:07;;;;;;;3.70;2.73;;;23.50;99.10;;;;;;4964722;29;20422;-81
2021/06/27 07:07:33;;;;;;;4.53;2.70;;;23.60;99.40;;;;;;4963814;28;20207;-81
2021/06/27 07:09:59;;;;;;;3.50;3.20;;;23.60;98.00;;;;;;4947940;29;20436;-81
2021/06/27 07:12:25;;;;;;;3.67;2.80;;;23.40;97.70;;;;;;4946133;29;20432;-81
2021/06/27 07:14:50;;;;;;;3.20;2.50;;;23.50;98.00;;;;;;4946887;29;20191;-82
2021/06/27 07:17:16;;;;;;;2.33;2.13;;;23.70;98.70;;;;;;4945867;29;20250;-79
2021/06/27 07:19:41;;;;;;;3.60;2.70;;;24.20;97.90;;;;;;4963571;29;20176;-81
2021/06/27 07:22:07;;;;;;;2.80;2.60;;;24.50;96.40;;;;;;4947346;29;20188;-81
2021/06/27 07:24:32;;;;;;;2.70;2.47;;;24.30;95.80;;;;;;4948353;29;20212;-82
2021/06/27 07:27:01;;;;;;;4.57;2.97;;;24.10;95.40;;;;;;4948755;29;20203;-82
2021/06/27 07:29:27;;;;;;;5.20;4.27;;;24.10;95.30;;;;;;4949169;29;20176;-82
2021/06/27 07:31:54;;;;;;;4.03;3.00;;;23.70;95.50;;;;;;4932927;29;20488;-81
2021/06/27 07:34:20;;;;;;;2.53;2.33;;;23.50;96.20;;;;;;4946458;29;20439;-81
2021/06/27 07:36:46;;;;;;;3.80;3.00;;;23.80;96.10;;;;;;4931413;29;20884;-82
2021/06/27 07:39:11;;;;;;;2.70;2.47;;;23.90;95.90;;;;;;4964204;29;20426;-80
2021/06/27 07:41:37;;;;;;;3.73;2.60;;;24.00;95.50;;;;;;4945575;29;20190;-80
2021/06/27 07:44:02;;;;;;;3.00;2.60;;;24.20;95.20;;;;;;4930966;29;20223;-80
2021/06/27 07:46:28;;;;;;;3.50;3.20;;;24.40;94.80;;;;;;4944796;29;20239;-80
2021/06/27 07:48:53;;;;;;;4.20;3.30;;;24.00;94.70;;;;;;4929706;29;20187;-81
2021/06/27 07:51:19;;;;;;;3.77;2.30;;;23.70;95.50;;;;;;4946072;29;20655;-83
2021/06/27 07:53:44;;;;;;;3.97;3.13;;;23.40;95.30;;;;;;4945610;29;20212;-79
2021/06/27 07:56:10;;;;;;;3.23;2.90;;;23.80;96.20;;;;;;4946139;29;20184;-80
2021/06/27 07:58:36;;;;;;;5.57;3.50;;;24.10;95.00;;;;;;4946517;29;20183;-81
2021/06/27 08:01:01;;;;;;;9.23;4.70;;;24.00;94.60;;;;;;4945088;29;20191;-82
2021/06/27 08:03:27;;;;;;;8.43;3.20;;;23.80;94.70;;;;;;4962382;29;20279;-81
2021/06/27 08:05:53;;;;;;;3.40;2.83;;;23.50;95.00;;;;;;4929987;29;20180;-81
2021/06/27 08:08:18;;;;;;;3.50;2.00;;;23.80;95.80;;;;;;4964543;29;20227;-81
2021/06/27 08:10:44;;;;;;;4.83;3.07;;;23.60;95.50;;;;;;4944368;29;20183;-80
2021/06/27 08:13:10;;;;;;;3.30;2.90;;;23.70;95.50;;;;;;4960717;29;20200;-82
2021/06/27 08:15:36;;;;;;;3.30;2.63;;;24.10;96.00;;;;;;4944339;29;20231;-82
2021/06/27 08:18:02;;;;;;;3.60;2.80;;;24.30;94.70;;;;;;4943971;29;20502;-82
2021/06/27 08:20:27;;;;;;;3.40;2.83;;;24.50;94.80;;;;;;4962704;29;20416;-82
2021/06/27 08:22:55;;;;;;;3.17;2.60;;;24.70;94.50;;;;;;4962003;29;20750;-82
2021/06/27 08:25:21;;;;;;;3.13;2.73;;;24.70;93.50;;;;;;4942172;29;20473;-82
2021/06/27 08:27:47;;;;;;;3.30;3.00;;;24.70;93.90;;;;;;4960566;29;20971;-82
2021/06/27 08:30:14;;;;;;;3.17;2.70;;;24.70;92.90;;;;;;4961281;29;20415;-81
2021/06/27 08:32:44;;;;;;;5.93;3.13;;;24.80;93.10;;;;;;4957222;29;20867;-82
2021/06/27 08:35:18;;;;;;;3.77;3.03;;;24.80;93.20;;;;;;4939888;29;20969;-82
2021/06/27 08:37:44;;;;;;;3.07;2.77;;;24.60;92.90;;;;;;4942659;29;20416;-79
2021/06/27 08:40:14;;;;;;;3.50;2.80;;;24.60;93.30;;;;;;4971602;28;20466;-82
2021/06/27 08:42:40;;;;;;;3.80;3.37;;;24.60;92.90;;;;;;4946589;29;20478;-82
2021/06/27 08:45:08;;;;;;;3.13;2.83;;;24.80;92.80;;;;;;4946052;29;20416;-81
2021/06/27 08:47:38;;;;;;;3.03;2.73;;;24.80;92.90;;;;;;4945267;29;20184;-81
2021/06/27 08:50:09;;;;;;;3.67;2.53;;;24.80;93.20;;;;;;4943734;29;20430;-80
2021/06/27 08:52:35;;;;;;;3.63;2.77;;;24.60;91.90;;;;;;4942881;29;20502;-81
2021/06/27 08:55:02;;;;;;;4.27;3.87;;;24.20;92.10;;;;;;4963138;29;20416;-79
2021/06/27 08:57:27;;;;;;;3.00;2.70;;;24.20;92.90;;;;;;4946709;29;20176;-81
2021/06/27 08:59:53;;;;;;;3.83;3.43;;;24.10;92.80;;;;;;4964177;29;20420;-80
2021/06/27 09:02:20;;;;;;;3.40;3.00;;;23.90;92.50;;;;;;4963813;29;20196;-81
2021/06/27 09:04:46;;;;;;;5.27;3.47;;;24.00;93.00;;;;;;4946602;29;20467;-79
2021/06/27 09:07:31;;;;;;;3.83;3.00;;;24.10;93.10;;;;;;4965177;29;20498;-81
2021/06/27 09:10:15;;;;;;;3.47;3.17;;;24.30;92.70;;;;;;4964710;29;20479;-81
2021/06/27 09:12:58;;;;;;;3.10;2.80;;;24.20;92.40;;;;;;4947373;29;20463;-82
2021/06/27 09:15:45;;;;;;;3.00;2.63;;;24.00;93.00;;;;;;4946414;29;20419;-81
2021/06/27 09:18:13;;;;;;;3.50;3.03;;;24.10;92.90;;;;;;4967022;29;20423;-81
2021/06/27 09:20:40;;;;;;;3.63;3.30;;;24.30;92.90;;;;;;4967335;29;20954;-81
2021/06/27 09:23:07;;;;;;;3.23;2.63;;;24.30;92.30;;;;;;4968325;29;20471;-81
2021/06/27 09:25:33;;;;;;;3.83;3.13;;;24.40;92.20;;;;;;4950458;29;20411;-81
2021/06/27 09:28:04;;;;;;;3.53;3.20;;;24.50;92.10;;;;;;4950051;29;20435;-80
2021/06/27 09:30:41;;;;;;;3.53;3.07;;;24.50;92.30;;;;;;4966815;29;20503;-81
2021/06/27 09:33:10;;;;;;;3.80;3.03;;;24.50;91.60;;;;;;4948399;29;20539;-80
2021/06/27 09:35:49;;;;;;;4.00;3.20;;;24.20;91.70;;;;;;4932654;29;20471;-80
2021/06/27 09:38:44;;;;;;;3.23;2.93;;;24.30;91.60;;;;;;4948729;29;20509;-80
2021/06/27 09:41:33;;;;;;;3.57;3.27;;;24.10;91.80;;;;;;4965517;29;20404;-81
2021/06/27 09:44:07;;;;;;;4.90;3.77;;;24.10;91.40;;;;;;4964627;29;20525;-81
2021/06/27 09:46:34;;;;;;;4.23;3.80;;;24.30;91.90;;;;;;4965995;29;20411;-81
2021/06/27 09:49:03;;;;;;;3.07;2.77;;;24.50;91.30;;;;;;4947446;29;20420;-80
2021/06/27 09:51:31;;;;;;;3.77;2.90;;;24.60;91.00;;;;;;4964057;29;20499;-81
2021/06/27 09:53:58;;;;;;;3.97;3.53;;;24.70;91.20;;;;;;4963844;29;20443;-80
2021/06/27 09:56:25;;;;;;;3.80;3.33;;;24.60;90.80;;;;;;4963289;29;20419;-80
2021/06/27 09:59:03;;;;;;;7.47;3.40;;;24.60;90.30;;;;;;4947731;29;20447;-81
2021/06/27 10:01:31;;;;;;;2.90;2.53;;;24.40;90.40;;;;;;4964504;29;20511;-80
2021/06/27 10:04:00;;;;;;;2.77;2.57;;;24.40;90.20;;;;;;4945744;29;20532;-80
2021/06/27 10:06:32;;;;;;;3.23;2.93;;;24.50;89.70;;;;;;4945809;29;20471;-82
2021/06/27 10:09:16;;;;;;;3.17;2.87;;;24.40;88.40;;;;;;4962611;29;20531;-81
2021/06/27 10:12:07;;;;;;;3.00;2.70;;;24.20;89.50;;;;;;4946297;29;20420;-80
2021/06/27 10:14:55;;;;;;;2.80;2.60;;;24.40;89.10;;;;;;4963106;29;20404;-81
2021/06/27 10:17:23;;;;;;;3.43;3.07;;;24.60;90.00;;;;;;4962852;29;20506;-81
2021/06/27 10:19:50;;;;;;;3.90;2.93;;;24.70;88.40;;;;;;4963553;29;20416;-82
2021/06/27 10:22:16;;;;;;;6.70;3.17;;;24.50;87.70;;;;;;4947565;29;20467;-81
2021/06/27 10:24:42;;;;;;;2.80;2.60;;;24.60;89.30;;;;;;4947134;29;20414;-81
2021/06/27 10:27:09;;;;;;;4.80;4.00;;;24.60;88.20;;;;;;4966070;29;20444;-81
2021/06/27 10:29:41;;;;;;;3.90;2.90;;;24.50;86.60;;;;;;4961904;28;20400;-80
2021/06/27 10:32:08;;;;;;;3.17;2.87;;;24.60;86.30;;;;;;4947227;29;20499;-80
2021/06/27 10:34:37;;;;;;;3.00;2.70;;;24.60;86.80;;;;;;4964362;28;20431;-82
2021/06/27 10:37:12;;;;;;;4.37;2.50;;;24.60;87.40;;;;;;4930677;29;20423;-82
2021/06/27 10:39:39;;;;;;;3.37;3.00;;;24.60;86.20;;;;;;4930185;29;20514;-81
2021/06/27 10:42:07;;;;;;;2.97;2.50;;;24.50;87.30;;;;;;4944644;29;20491;-81
2021/06/27 10:44:38;;;;;;;2.60;2.40;;;24.60;85.20;;;;;;4944897;29;20904;-80
2021/06/27 10:47:05;;;;;;;4.00;3.43;;;24.80;86.40;;;;;;4962058;29;20419;-80
2021/06/27 10:49:33;;;;;;;3.00;2.70;;;25.00;85.10;;;;;;4945310;29;20419;-80
2021/06/27 10:52:09;;;;;;;3.40;2.93;;;25.10;84.50;;;;;;4944513;29;20430;-80
2021/06/27 10:54:35;;;;;;;4.90;2.97;;;25.10;84.00;;;;;;4945915;29;20795;-82
2021/06/27 10:57:04;;;;;;;2.50;2.07;;;25.20;84.40;;;;;;4945065;29;20407;-82
2021/06/27 10:59:42;;;;;;;4.90;3.40;;;25.30;84.70;;;;;;4962346;29;20415;-83
2021/06/27 11:02:17;;;;;;;2.83;2.60;;;25.40;83.10;;;;;;4961833;29;20415;-81
2021/06/27 11:04:43;;;;;;;2.83;2.60;;;25.10;81.90;;;;;;4963368;29;20411;-82
2021/06/27 11:07:38;;;;;;;4.03;3.63;;;25.00;80.50;;;;;;4945593;29;20778;-81
2021/06/27 11:10:21;;;;;;;2.53;2.33;;;25.10;81.20;;;;;;4944483;29;20736;-82
2021/06/27 11:13:10;;;;;;;3.87;2.77;;;25.10;82.70;;;;;;4944454;29;20438;-81
2021/06/27 11:15:56;;;;;;;2.80;2.60;;;25.20;78.70;;;;;;4961711;29;20416;-82
2021/06/27 11:18:37;;;;;;;3.37;2.57;;;24.90;77.70;;;;;;4942804;29;20519;-80
2021/06/27 11:21:09;;;;;;;2.47;2.27;;;24.80;76.90;;;;;;4943838;29;20450;-82
2021/06/27 11:23:47;;;;;;;2.33;2.10;;;25.00;77.50;;;;;;4961334;29;20494;-81
2021/06/27 11:26:37;;;;;;;2.33;2.13;;;25.10;76.00;;;;;;4944444;29;20502;-83
2021/06/27 11:29:23;;;;;;;3.10;2.57;;;25.00;74.80;;;;;;4961078;29;20424;-82
2021/06/27 11:32:04;;;;;;;2.33;2.13;;;25.00;75.80;;;;;;4944229;29;20408;-81
2021/06/27 11:34:36;;;;;;;3.23;2.60;;;25.00;75.60;;;;;;4961083;29;20839;-81
2021/06/27 11:37:16;;;;;;;3.60;2.77;;;25.20;74.80;;;;;;4928164;29;20442;-82
2021/06/27 11:39:53;;;;;;;3.27;2.97;;;25.40;74.70;;;;;;4958805;28;20428;-81
2021/06/27 11:42:30;;;;;;;3.30;3.00;;;25.30;75.10;;;;;;4941465;29;21093;-82
2021/06/27 11:45:15;;;;;;;3.50;3.20;;;25.20;77.90;;;;;;4959347;29;20414;-81
2021/06/27 11:47:57;;;;;;;3.97;3.30;;;25.30;79.20;;;;;;4958036;29;20415;-82
2021/06/27 11:50:28;;;;;;;3.67;2.47;;;25.20;78.30;;;;;;4924845;29;20460;-81
2021/06/27 11:52:56;;;;;;;3.90;2.83;;;25.00;79.10;;;;;;4923982;29;20451;-81
2021/06/27 11:55:27;;;;;;;3.50;3.20;;;25.20;77.60;;;;;;4956892;29;20434;-81
2021/06/27 11:57:53;;;;;;;3.77;3.17;;;25.40;77.30;;;;;;4956435;29;20935;-81
2021/06/27 12:00:30;;;;;;;4.73;3.07;;;25.50;77.90;;;;;;4958304;29;20471;-81
2021/06/27 12:03:03;;;;;;;3.40;2.73;;;25.70;77.20;;;;;;4940366;29;20886;-81
2021/06/27 12:05:29;;;;;;;4.63;3.87;;;25.80;77.20;;;;;;4940303;29;20427;-81
2021/06/27 12:07:54;;;;;;;4.10;3.00;;;25.70;77.50;;;;;;4957845;29;20709;-81
2021/06/27 12:10:22;;;;;;;3.33;3.03;;;25.70;77.60;;;;;;4925800;29;20636;-81
2021/06/27 12:12:49;;;;;;;2.80;2.60;;;25.70;76.30;;;;;;4960341;29;20188;-81
2021/06/27 12:15:15;;;;;;;2.97;2.63;;;25.80;77.10;;;;;;4961679;29;20415;-81
2021/06/27 12:18:06;;;;;;;3.37;2.73;;;25.70;77.10;;;;;;4960906;29;20431;-82
2021/06/27 12:20:41;;;;;;;3.30;3.00;;;25.40;75.90;;;;;;4960472;29;20188;-82
2021/06/27 12:23:09;;;;;;;3.17;2.80;;;25.10;76.30;;;;;;4943504;29;20467;-81
2021/06/27 12:25:39;;;;;;;5.50;3.33;;;25.10;77.30;;;;;;4944069;29;20419;-81
2021/06/27 12:28:07;;;;;;;3.87;3.40;;;25.20;77.80;;;;;;4945105;29;20419;-81
2021/06/27 12:30:44;;;;;;;6.80;3.43;;;25.20;77.60;;;;;;4960697;29;20454;-82
2021/06/27 12:33:27;;;;;;;3.53;2.90;;;25.40;78.40;;;;;;4942836;29;20439;-79
2021/06/27 12:35:59;;;;;;;3.50;3.10;;;25.50;77.20;;;;;;4928904;29;20419;-81
2021/06/27 12:38:26;;;;;;;3.23;2.93;;;25.30;76.00;;;;;;4943849;29;20427;-82
2021/06/27 12:40:56;;;;;;;3.97;2.90;;;25.40;76.20;;;;;;4944270;29;20955;-81
2021/06/27 12:43:34;;;;;;;3.23;2.20;;;25.50;75.10;;;;;;4960030;29;20517;-80
2021/06/27 12:46:18;;;;;;;4.10;2.77;;;25.70;73.70;;;;;;4960660;29;20438;-81
2021/06/27 12:48:46;;;;;;;2.93;2.63;;;25.70;72.90;;;;;;4928942;29;20416;-80
2021/06/27 12:51:23;;;;;;;2.97;2.63;;;25.90;73.50;;;;;;4944589;29;20510;-80
2021/06/27 12:54:15;;;;;;;3.03;2.77;;;26.00;72.40;;;;;;4949246;29;20466;-81
2021/06/27 12:56:53;;;;;;;2.87;2.60;;;26.00;69.50;;;;;;4965553;29;20908;-81